sensor_id;sensor_type;location;lat;lon;timestamp;P1;durP1;ratioP1;P2;durP2;ratioP2
68870;SDS011;55906;52.278;6.808;2023-09-08T00:01:56;5.88;;;4.40;;
68870;SDS011;55906;52.278;6.808;2023-09-08T00:04:22;5.60;;;4.43;;
68870;SDS011;55906;52.278;6.808;2023-09-08T00:06:50;5.30;;;3.60;;
68870;SDS011;55906;52.278;6.808;2023-09-08T00:09:17;5.38;;;3.53;;
68870;SDS011;55906;52.278;6.808;2023-09-08T00:11:44;5.85;;;3.65;;
68870;SDS011;55906;52.278;6.808;2023-09-08T00:14:10;5.13;;;3.67;;
68870;SDS011;55906;52.278;6.808;2023-09-08T00:16:37;5.53;;;3.77;;
68870;SDS011;55906;52.278;6.808;2023-09-08T00:19:07;5.28;;;3.55;;
68870;SDS011;55906;52.278;6.808;2023-09-08T00:21:34;6.35;;;4.20;;
68870;SDS011;55906;52.278;6.808;2023-09-08T00:24:02;5.78;;;4.25;;
68870;SDS011;55906;52.278;6.808;2023-09-08T00:26:29;7.25;;;4.63;;
68870;SDS011;55906;52.278;6.808;2023-09-08T00:28:56;5.33;;;4.37;;
68870;SDS011;55906;52.278;6.808;2023-09-08T00:31:23;5.45;;;4.20;;
68870;SDS011;55906;52.278;6.808;2023-09-08T00:33:49;6.65;;;4.43;;
68870;SDS011;55906;52.278;6.808;2023-09-08T00:36:16;6.53;;;5.15;;
68870;SDS011;55906;52.278;6.808;2023-09-08T00:38:44;6.20;;;4.10;;
68870;SDS011;55906;52.278;6.808;2023-09-08T00:41:12;6.20;;;4.10;;
68870;SDS011;55906;52.278;6.808;2023-09-08T00:43:38;5.28;;;3.95;;
68870;SDS011;55906;52.278;6.808;2023-09-08T00:46:05;5.93;;;4.43;;
68870;SDS011;55906;52.278;6.808;2023-09-08T00:48:32;5.95;;;4.43;;
68870;SDS011;55906;52.278;6.808;2023-09-08T00:51:00;5.25;;;3.67;;
68870;SDS011;55906;52.278;6.808;2023-09-08T00:53:27;7.97;;;4.70;;
68870;SDS011;55906;52.278;6.808;2023-09-08T00:55:54;6.72;;;4.43;;
68870;SDS011;55906;52.278;6.808;2023-09-08T00:58:23;5.93;;;4.45;;
68870;SDS011;55906;52.278;6.808;2023-09-08T01:00:50;5.15;;;3.72;;
68870;SDS011;55906;52.278;6.808;2023-09-08T01:03:17;6.65;;;4.10;;
68870;SDS011;55906;52.278;6.808;2023-09-08T01:05:43;6.73;;;4.00;;
68870;SDS011;55906;52.278;6.808;2023-09-08T01:08:11;6.03;;;4.32;;
68870;SDS011;55906;52.278;6.808;2023-09-08T01:10:40;6.47;;;3.95;;
68870;SDS011;55906;52.278;6.808;2023-09-08T01:13:07;6.30;;;3.97;;
68870;SDS011;55906;52.278;6.808;2023-09-08T01:15:35;5.97;;;4.15;;
68870;SDS011;55906;52.278;6.808;2023-09-08T01:18:02;6.43;;;4.63;;
68870;SDS011;55906;52.278;6.808;2023-09-08T01:20:30;6.07;;;4.70;;
68870;SDS011;55906;52.278;6.808;2023-09-08T01:23:11;5.47;;;4.30;;
68870;SDS011;55906;52.278;6.808;2023-09-08T01:25:46;6.95;;;4.57;;
68870;SDS011;55906;52.278;6.808;2023-09-08T01:28:17;6.35;;;4.78;;
68870;SDS011;55906;52.278;6.808;2023-09-08T01:30:45;5.63;;;4.40;;
68870;SDS011;55906;52.278;6.808;2023-09-08T01:33:12;7.45;;;4.70;;
68870;SDS011;55906;52.278;6.808;2023-09-08T01:35:39;6.00;;;4.43;;
68870;SDS011;55906;52.278;6.808;2023-09-08T01:38:06;6.93;;;4.88;;
68870;SDS011;55906;52.278;6.808;2023-09-08T01:40:33;6.70;;;5.03;;
68870;SDS011;55906;52.278;6.808;2023-09-08T01:43:01;5.87;;;4.70;;
68870;SDS011;55906;52.278;6.808;2023-09-08T01:45:28;6.22;;;5.03;;
68870;SDS011;55906;52.278;6.808;2023-09-08T01:47:55;9.05;;;5.05;;
68870;SDS011;55906;52.278;6.808;2023-09-08T01:50:21;5.95;;;4.75;;
68870;SDS011;55906;52.278;6.808;2023-09-08T01:52:49;6.45;;;4.47;;
68870;SDS011;55906;52.278;6.808;2023-09-08T01:55:16;6.37;;;4.60;;
68870;SDS011;55906;52.278;6.808;2023-09-08T01:57:43;5.80;;;4.13;;
68870;SDS011;55906;52.278;6.808;2023-09-08T02:00:13;6.05;;;4.15;;
68870;SDS011;55906;52.278;6.808;2023-09-08T02:02:40;5.80;;;4.28;;
68870;SDS011;55906;52.278;6.808;2023-09-08T02:05:07;6.70;;;4.60;;
68870;SDS011;55906;52.278;6.808;2023-09-08T02:07:34;6.27;;;4.47;;
68870;SDS011;55906;52.278;6.808;2023-09-08T02:10:01;6.13;;;4.53;;
68870;SDS011;55906;52.278;6.808;2023-09-08T02:12:27;6.40;;;4.80;;
68870;SDS011;55906;52.278;6.808;2023-09-08T02:14:54;8.02;;;4.47;;
68870;SDS011;55906;52.278;6.808;2023-09-08T02:17:22;9.85;;;4.82;;
68870;SDS011;55906;52.278;6.808;2023-09-08T02:19:49;6.17;;;4.80;;
68870;SDS011;55906;52.278;6.808;2023-09-08T02:22:16;6.65;;;4.18;;
68870;SDS011;55906;52.278;6.808;2023-09-08T02:24:42;7.78;;;5.18;;
68870;SDS011;55906;52.278;6.808;2023-09-08T02:27:09;6.18;;;5.20;;
68870;SDS011;55906;52.278;6.808;2023-09-08T02:29:36;6.35;;;4.60;;
68870;SDS011;55906;52.278;6.808;2023-09-08T02:32:03;6.90;;;4.93;;
68870;SDS011;55906;52.278;6.808;2023-09-08T02:34:33;6.30;;;4.60;;
68870;SDS011;55906;52.278;6.808;2023-09-08T02:37:01;7.03;;;4.50;;
68870;SDS011;55906;52.278;6.808;2023-09-08T02:39:28;6.20;;;4.53;;
68870;SDS011;55906;52.278;6.808;2023-09-08T02:41:55;5.93;;;4.45;;
68870;SDS011;55906;52.278;6.808;2023-09-08T02:44:21;6.80;;;4.87;;
68870;SDS011;55906;52.278;6.808;2023-09-08T02:46:48;8.02;;;5.00;;
68870;SDS011;55906;52.278;6.808;2023-09-08T02:49:14;7.32;;;5.18;;
68870;SDS011;55906;52.278;6.808;2023-09-08T02:51:42;7.00;;;5.63;;
68870;SDS011;55906;52.278;6.808;2023-09-08T02:54:09;7.43;;;5.38;;
68870;SDS011;55906;52.278;6.808;2023-09-08T02:56:36;6.83;;;5.00;;
68870;SDS011;55906;52.278;6.808;2023-09-08T02:59:02;5.75;;;4.78;;
68870;SDS011;55906;52.278;6.808;2023-09-08T03:01:29;6.65;;;5.13;;
68870;SDS011;55906;52.278;6.808;2023-09-08T03:03:56;6.78;;;5.15;;
68870;SDS011;55906;52.278;6.808;2023-09-08T03:06:22;6.38;;;5.05;;
68870;SDS011;55906;52.278;6.808;2023-09-08T03:08:50;5.80;;;4.70;;
68870;SDS011;55906;52.278;6.808;2023-09-08T03:11:17;6.78;;;5.38;;
68870;SDS011;55906;52.278;6.808;2023-09-08T03:13:44;6.90;;;5.00;;
68870;SDS011;55906;52.278;6.808;2023-09-08T03:16:10;6.68;;;4.90;;
68870;SDS011;55906;52.278;6.808;2023-09-08T03:18:37;6.43;;;5.25;;
68870;SDS011;55906;52.278;6.808;2023-09-08T03:21:04;7.77;;;5.53;;
68870;SDS011;55906;52.278;6.808;2023-09-08T03:23:35;7.32;;;5.05;;
68870;SDS011;55906;52.278;6.808;2023-09-08T03:26:03;6.38;;;5.00;;
68870;SDS011;55906;52.278;6.808;2023-09-08T03:28:30;6.90;;;5.32;;
68870;SDS011;55906;52.278;6.808;2023-09-08T03:30:57;6.53;;;4.90;;
68870;SDS011;55906;52.278;6.808;2023-09-08T03:33:23;6.13;;;4.60;;
68870;SDS011;55906;52.278;6.808;2023-09-08T03:35:50;6.72;;;5.30;;
68870;SDS011;55906;52.278;6.808;2023-09-08T03:38:17;6.38;;;4.65;;
68870;SDS011;55906;52.278;6.808;2023-09-08T03:40:43;6.68;;;5.10;;
68870;SDS011;55906;52.278;6.808;2023-09-08T03:43:11;6.13;;;4.72;;
68870;SDS011;55906;52.278;6.808;2023-09-08T03:45:38;6.17;;;5.17;;
68870;SDS011;55906;52.278;6.808;2023-09-08T03:48:05;6.63;;;5.07;;
68870;SDS011;55906;52.278;6.808;2023-09-08T03:50:32;6.05;;;4.43;;
68870;SDS011;55906;52.278;6.808;2023-09-08T03:52:59;5.50;;;4.07;;
68870;SDS011;55906;52.278;6.808;2023-09-08T03:55:26;6.85;;;4.95;;
68870;SDS011;55906;52.278;6.808;2023-09-08T03:57:53;5.73;;;4.50;;
68870;SDS011;55906;52.278;6.808;2023-09-08T04:00:21;7.38;;;5.03;;
68870;SDS011;55906;52.278;6.808;2023-09-08T04:02:48;5.97;;;4.72;;
68870;SDS011;55906;52.278;6.808;2023-09-08T04:05:15;6.53;;;4.68;;
68870;SDS011;55906;52.278;6.808;2023-09-08T04:07:42;6.10;;;4.38;;
68870;SDS011;55906;52.278;6.808;2023-09-08T04:10:09;6.23;;;4.93;;
68870;SDS011;55906;52.278;6.808;2023-09-08T04:12:35;6.72;;;4.93;;
68870;SDS011;55906;52.278;6.808;2023-09-08T04:15:02;6.65;;;4.85;;
68870;SDS011;55906;52.278;6.808;2023-09-08T04:17:31;7.20;;;4.70;;
68870;SDS011;55906;52.278;6.808;2023-09-08T04:19:58;6.40;;;4.85;;
68870;SDS011;55906;52.278;6.808;2023-09-08T04:22:25;6.13;;;4.77;;
68870;SDS011;55906;52.278;6.808;2023-09-08T04:24:51;6.75;;;5.43;;
68870;SDS011;55906;52.278;6.808;2023-09-08T04:27:19;6.65;;;4.72;;
68870;SDS011;55906;52.278;6.808;2023-09-08T04:29:45;6.95;;;5.18;;
68870;SDS011;55906;52.278;6.808;2023-09-08T04:32:12;6.75;;;5.13;;
68870;SDS011;55906;52.278;6.808;2023-09-08T04:34:41;6.90;;;5.80;;
68870;SDS011;55906;52.278;6.808;2023-09-08T04:37:08;6.50;;;5.07;;
68870;SDS011;55906;52.278;6.808;2023-09-08T04:39:35;6.50;;;4.80;;
68870;SDS011;55906;52.278;6.808;2023-09-08T04:42:03;6.47;;;4.85;;
68870;SDS011;55906;52.278;6.808;2023-09-08T04:44:30;7.25;;;5.25;;
68870;SDS011;55906;52.278;6.808;2023-09-08T04:46:57;6.73;;;5.47;;
68870;SDS011;55906;52.278;6.808;2023-09-08T04:49:23;6.93;;;5.53;;
68870;SDS011;55906;52.278;6.808;2023-09-08T04:51:51;6.45;;;5.07;;
68870;SDS011;55906;52.278;6.808;2023-09-08T04:54:20;6.85;;;5.68;;
68870;SDS011;55906;52.278;6.808;2023-09-08T04:56:47;6.38;;;4.97;;
68870;SDS011;55906;52.278;6.808;2023-09-08T04:59:14;7.73;;;5.10;;
68870;SDS011;55906;52.278;6.808;2023-09-08T05:01:40;6.78;;;5.10;;
68870;SDS011;55906;52.278;6.808;2023-09-08T05:04:08;7.22;;;5.07;;
68870;SDS011;55906;52.278;6.808;2023-09-08T05:06:35;7.18;;;5.40;;
68870;SDS011;55906;52.278;6.808;2023-09-08T05:09:03;6.57;;;4.93;;
68870;SDS011;55906;52.278;6.808;2023-09-08T05:11:32;6.40;;;4.60;;
68870;SDS011;55906;52.278;6.808;2023-09-08T05:13:58;7.30;;;5.38;;
68870;SDS011;55906;52.278;6.808;2023-09-08T05:16:25;7.40;;;5.30;;
68870;SDS011;55906;52.278;6.808;2023-09-08T05:19:02;6.82;;;5.55;;
68870;SDS011;55906;52.278;6.808;2023-09-08T05:21:30;6.63;;;5.05;;
68870;SDS011;55906;52.278;6.808;2023-09-08T05:23:57;7.47;;;6.03;;
68870;SDS011;55906;52.278;6.808;2023-09-08T05:26:25;6.80;;;5.00;;
68870;SDS011;55906;52.278;6.808;2023-09-08T05:28:52;6.75;;;4.70;;
68870;SDS011;55906;52.278;6.808;2023-09-08T05:31:19;6.72;;;4.88;;
68870;SDS011;55906;52.278;6.808;2023-09-08T05:33:45;7.30;;;5.22;;
68870;SDS011;55906;52.278;6.808;2023-09-08T05:36:12;6.83;;;4.97;;
68870;SDS011;55906;52.278;6.808;2023-09-08T05:38:39;6.57;;;4.90;;
68870;SDS011;55906;52.278;6.808;2023-09-08T05:41:05;7.25;;;5.63;;
68870;SDS011;55906;52.278;6.808;2023-09-08T05:43:34;6.07;;;4.70;;
68870;SDS011;55906;52.278;6.808;2023-09-08T05:46:01;6.10;;;5.20;;
68870;SDS011;55906;52.278;6.808;2023-09-08T05:48:29;6.80;;;5.53;;
68870;SDS011;55906;52.278;6.808;2023-09-08T05:50:55;6.88;;;4.82;;
68870;SDS011;55906;52.278;6.808;2023-09-08T05:53:22;6.72;;;5.05;;
68870;SDS011;55906;52.278;6.808;2023-09-08T05:55:49;8.63;;;4.95;;
68870;SDS011;55906;52.278;6.808;2023-09-08T05:58:16;6.97;;;5.22;;
68870;SDS011;55906;52.278;6.808;2023-09-08T06:00:44;6.27;;;4.43;;
68870;SDS011;55906;52.278;6.808;2023-09-08T06:03:12;6.55;;;4.82;;
68870;SDS011;55906;52.278;6.808;2023-09-08T06:05:39;7.95;;;4.82;;
68870;SDS011;55906;52.278;6.808;2023-09-08T06:08:05;7.53;;;5.53;;
68870;SDS011;55906;52.278;6.808;2023-09-08T06:10:32;6.55;;;4.55;;
68870;SDS011;55906;52.278;6.808;2023-09-08T06:12:58;6.90;;;5.60;;
68870;SDS011;55906;52.278;6.808;2023-09-08T06:15:26;7.60;;;5.47;;
68870;SDS011;55906;52.278;6.808;2023-09-08T06:17:54;8.45;;;6.70;;
68870;SDS011;55906;52.278;6.808;2023-09-08T06:20:21;7.07;;;5.55;;
68870;SDS011;55906;52.278;6.808;2023-09-08T06:22:49;8.75;;;6.47;;
68870;SDS011;55906;52.278;6.808;2023-09-08T06:25:15;10.03;;;7.23;;
68870;SDS011;55906;52.278;6.808;2023-09-08T06:27:42;9.55;;;6.65;;
68870;SDS011;55906;52.278;6.808;2023-09-08T06:30:09;9.77;;;7.50;;
68870;SDS011;55906;52.278;6.808;2023-09-08T06:32:38;9.10;;;6.78;;
68870;SDS011;55906;52.278;6.808;2023-09-08T06:35:06;9.05;;;6.65;;
68870;SDS011;55906;52.278;6.808;2023-09-08T06:37:34;10.33;;;7.97;;
68870;SDS011;55906;52.278;6.808;2023-09-08T06:40:02;9.00;;;6.55;;
68870;SDS011;55906;52.278;6.808;2023-09-08T06:42:29;10.82;;;7.65;;
68870;SDS011;55906;52.278;6.808;2023-09-08T06:44:56;9.10;;;6.35;;
68870;SDS011;55906;52.278;6.808;2023-09-08T06:47:22;8.90;;;6.90;;
68870;SDS011;55906;52.278;6.808;2023-09-08T06:49:49;9.43;;;7.40;;
68870;SDS011;55906;52.278;6.808;2023-09-08T06:52:17;9.15;;;6.90;;
68870;SDS011;55906;52.278;6.808;2023-09-08T06:54:44;11.15;;;6.53;;
68870;SDS011;55906;52.278;6.808;2023-09-08T06:57:11;13.15;;;7.70;;
68870;SDS011;55906;52.278;6.808;2023-09-08T06:59:37;10.77;;;7.30;;
68870;SDS011;55906;52.278;6.808;2023-09-08T07:02:04;9.27;;;6.80;;
68870;SDS011;55906;52.278;6.808;2023-09-08T07:04:30;9.32;;;6.65;;
68870;SDS011;55906;52.278;6.808;2023-09-08T07:06:57;9.65;;;6.88;;
68870;SDS011;55906;52.278;6.808;2023-09-08T07:09:30;8.70;;;6.63;;
68870;SDS011;55906;52.278;6.808;2023-09-08T07:11:56;8.30;;;6.55;;
68870;SDS011;55906;52.278;6.808;2023-09-08T07:14:23;9.97;;;7.10;;
68870;SDS011;55906;52.278;6.808;2023-09-08T07:16:50;10.52;;;6.88;;
68870;SDS011;55906;52.278;6.808;2023-09-08T07:19:16;7.90;;;6.53;;
68870;SDS011;55906;52.278;6.808;2023-09-08T07:21:43;9.10;;;6.78;;
68870;SDS011;55906;52.278;6.808;2023-09-08T07:24:09;7.65;;;5.95;;
68870;SDS011;55906;52.278;6.808;2023-09-08T07:26:38;7.80;;;6.37;;
68870;SDS011;55906;52.278;6.808;2023-09-08T07:29:05;10.70;;;6.47;;
68870;SDS011;55906;52.278;6.808;2023-09-08T07:31:32;8.60;;;6.00;;
68870;SDS011;55906;52.278;6.808;2023-09-08T07:33:58;8.20;;;6.38;;
68870;SDS011;55906;52.278;6.808;2023-09-08T07:36:25;7.57;;;6.13;;
68870;SDS011;55906;52.278;6.808;2023-09-08T07:38:51;7.72;;;5.88;;
68870;SDS011;55906;52.278;6.808;2023-09-08T07:41:18;8.95;;;5.82;;
68870;SDS011;55906;52.278;6.808;2023-09-08T07:43:46;8.38;;;5.75;;
68870;SDS011;55906;52.278;6.808;2023-09-08T07:46:13;8.85;;;6.85;;
68870;SDS011;55906;52.278;6.808;2023-09-08T07:48:39;8.65;;;6.22;;
68870;SDS011;55906;52.278;6.808;2023-09-08T07:51:06;8.05;;;5.50;;
68870;SDS011;55906;52.278;6.808;2023-09-08T07:53:32;7.35;;;6.10;;
68870;SDS011;55906;52.278;6.808;2023-09-08T07:55:59;10.80;;;6.25;;
68870;SDS011;55906;52.278;6.808;2023-09-08T07:58:26;9.13;;;6.20;;
68870;SDS011;55906;52.278;6.808;2023-09-08T08:00:54;7.80;;;5.60;;
68870;SDS011;55906;52.278;6.808;2023-09-08T08:03:21;7.50;;;5.97;;
68870;SDS011;55906;52.278;6.808;2023-09-08T08:05:47;6.88;;;5.28;;
68870;SDS011;55906;52.278;6.808;2023-09-08T08:08:14;8.73;;;5.60;;
68870;SDS011;55906;52.278;6.808;2023-09-08T08:10:40;7.47;;;5.80;;
68870;SDS011;55906;52.278;6.808;2023-09-08T08:13:07;7.80;;;5.85;;
68870;SDS011;55906;52.278;6.808;2023-09-08T08:15:34;7.30;;;5.60;;
68870;SDS011;55906;52.278;6.808;2023-09-08T08:18:04;9.25;;;5.70;;
68870;SDS011;55906;52.278;6.808;2023-09-08T08:20:31;8.23;;;5.57;;
68870;SDS011;55906;52.278;6.808;2023-09-08T08:23:00;7.65;;;4.88;;
68870;SDS011;55906;52.278;6.808;2023-09-08T08:25:27;6.80;;;4.82;;
68870;SDS011;55906;52.278;6.808;2023-09-08T08:27:53;7.65;;;4.97;;
68870;SDS011;55906;52.278;6.808;2023-09-08T08:30:25;8.50;;;4.53;;
68870;SDS011;55906;52.278;6.808;2023-09-08T08:32:52;6.85;;;4.60;;
68870;SDS011;55906;52.278;6.808;2023-09-08T08:35:20;7.65;;;4.32;;
68870;SDS011;55906;52.278;6.808;2023-09-08T08:37:48;7.20;;;4.20;;
68870;SDS011;55906;52.278;6.808;2023-09-08T08:40:15;6.20;;;3.72;;
68870;SDS011;55906;52.278;6.808;2023-09-08T08:42:41;6.50;;;4.40;;
68870;SDS011;55906;52.278;6.808;2023-09-08T08:45:09;10.00;;;4.40;;
68870;SDS011;55906;52.278;6.808;2023-09-08T08:47:36;6.13;;;4.05;;
68870;SDS011;55906;52.278;6.808;2023-09-08T08:50:03;6.72;;;4.03;;
68870;SDS011;55906;52.278;6.808;2023-09-08T08:52:33;7.57;;;4.10;;
68870;SDS011;55906;52.278;6.808;2023-09-08T08:55:00;6.53;;;4.10;;
68870;SDS011;55906;52.278;6.808;2023-09-08T08:57:26;7.38;;;3.95;;
68870;SDS011;55906;52.278;6.808;2023-09-08T08:59:53;8.07;;;3.55;;
68870;SDS011;55906;52.278;6.808;2023-09-08T09:02:20;6.35;;;3.33;;
68870;SDS011;55906;52.278;6.808;2023-09-08T09:04:48;6.35;;;3.70;;
68870;SDS011;55906;52.278;6.808;2023-09-08T09:07:15;5.40;;;3.87;;
68870;SDS011;55906;52.278;6.808;2023-09-08T09:09:46;7.55;;;4.13;;
68870;SDS011;55906;52.278;6.808;2023-09-08T09:12:12;8.10;;;3.70;;
68870;SDS011;55906;52.278;6.808;2023-09-08T09:14:44;6.90;;;3.58;;
68870;SDS011;55906;52.278;6.808;2023-09-08T09:17:13;7.20;;;3.55;;
68870;SDS011;55906;52.278;6.808;2023-09-08T09:19:40;8.23;;;3.63;;
68870;SDS011;55906;52.278;6.808;2023-09-08T09:22:06;7.72;;;3.80;;
68870;SDS011;55906;52.278;6.808;2023-09-08T09:24:34;8.25;;;3.88;;
68870;SDS011;55906;52.278;6.808;2023-09-08T09:27:07;6.07;;;3.72;;
68870;SDS011;55906;52.278;6.808;2023-09-08T09:29:34;9.20;;;4.25;;
68870;SDS011;55906;52.278;6.808;2023-09-08T09:32:10;5.87;;;3.30;;
68870;SDS011;55906;52.278;6.808;2023-09-08T09:34:40;7.70;;;3.80;;
68870;SDS011;55906;52.278;6.808;2023-09-08T09:37:14;7.57;;;3.80;;
68870;SDS011;55906;52.278;6.808;2023-09-08T09:39:40;7.78;;;3.72;;
68870;SDS011;55906;52.278;6.808;2023-09-08T09:42:08;7.78;;;3.50;;
68870;SDS011;55906;52.278;6.808;2023-09-08T09:44:35;6.47;;;3.20;;
68870;SDS011;55906;52.278;6.808;2023-09-08T09:47:02;5.63;;;3.55;;
68870;SDS011;55906;52.278;6.808;2023-09-08T09:49:30;5.78;;;3.33;;
68870;SDS011;55906;52.278;6.808;2023-09-08T09:51:57;5.22;;;3.28;;
68870;SDS011;55906;52.278;6.808;2023-09-08T09:54:24;6.78;;;3.40;;
68870;SDS011;55906;52.278;6.808;2023-09-08T09:56:51;6.43;;;3.50;;
68870;SDS011;55906;52.278;6.808;2023-09-08T09:59:19;8.75;;;3.10;;
68870;SDS011;55906;52.278;6.808;2023-09-08T10:01:47;6.25;;;3.20;;
68870;SDS011;55906;52.278;6.808;2023-09-08T10:04:14;8.45;;;3.20;;
68870;SDS011;55906;52.278;6.808;2023-09-08T10:06:42;7.57;;;3.40;;
68870;SDS011;55906;52.278;6.808;2023-09-08T10:09:09;5.53;;;3.20;;
68870;SDS011;55906;52.278;6.808;2023-09-08T10:11:40;5.25;;;3.10;;
68870;SDS011;55906;52.278;6.808;2023-09-08T10:24:32;4.80;;;2.75;;
68870;SDS011;55906;52.278;6.808;2023-09-08T10:27:01;7.35;;;3.50;;
68870;SDS011;55906;52.278;6.808;2023-09-08T10:29:31;5.32;;;2.75;;
68870;SDS011;55906;52.278;6.808;2023-09-08T10:31:59;4.72;;;2.90;;
68870;SDS011;55906;52.278;6.808;2023-09-08T10:34:26;6.43;;;2.67;;
68870;SDS011;55906;52.278;6.808;2023-09-08T10:36:54;6.22;;;3.10;;
68870;SDS011;55906;52.278;6.808;2023-09-08T10:39:28;5.97;;;3.10;;
68870;SDS011;55906;52.278;6.808;2023-09-08T10:44:55;7.07;;;2.92;;
68870;SDS011;55906;52.278;6.808;2023-09-08T10:47:33;5.43;;;2.80;;
68870;SDS011;55906;52.278;6.808;2023-09-08T10:50:08;4.57;;;2.45;;
68870;SDS011;55906;52.278;6.808;2023-09-08T10:52:42;6.32;;;2.60;;
68870;SDS011;55906;52.278;6.808;2023-09-08T10:55:10;6.65;;;2.42;;
68870;SDS011;55906;52.278;6.808;2023-09-08T10:57:37;5.68;;;2.72;;
68870;SDS011;55906;52.278;6.808;2023-09-08T11:00:04;6.70;;;2.70;;
68870;SDS011;55906;52.278;6.808;2023-09-08T11:02:37;4.35;;;2.17;;
68870;SDS011;55906;52.278;6.808;2023-09-08T11:05:06;5.45;;;2.90;;
68870;SDS011;55906;52.278;6.808;2023-09-08T11:07:34;7.05;;;2.75;;
68870;SDS011;55906;52.278;6.808;2023-09-08T11:10:02;5.85;;;2.72;;
68870;SDS011;55906;52.278;6.808;2023-09-08T11:12:31;5.33;;;2.77;;
68870;SDS011;55906;52.278;6.808;2023-09-08T11:14:58;6.35;;;2.70;;
68870;SDS011;55906;52.278;6.808;2023-09-08T11:17:26;5.38;;;2.58;;
68870;SDS011;55906;52.278;6.808;2023-09-08T11:19:53;6.78;;;2.78;;
68870;SDS011;55906;52.278;6.808;2023-09-08T11:22:21;6.53;;;2.88;;
68870;SDS011;55906;52.278;6.808;2023-09-08T11:24:50;6.13;;;2.90;;
68870;SDS011;55906;52.278;6.808;2023-09-08T11:27:17;5.10;;;2.72;;
68870;SDS011;55906;52.278;6.808;2023-09-08T12:18:54;5.82;;;2.40;;
68870;SDS011;55906;52.278;6.808;2023-09-08T12:21:22;6.35;;;2.10;;
68870;SDS011;55906;52.278;6.808;2023-09-08T12:23:49;4.40;;;2.00;;
68870;SDS011;55906;52.278;6.808;2023-09-08T12:26:16;6.20;;;2.10;;
68870;SDS011;55906;52.278;6.808;2023-09-08T12:28:43;5.77;;;2.07;;
68870;SDS011;55906;52.278;6.808;2023-09-08T12:31:12;4.22;;;2.20;;
68870;SDS011;55906;52.278;6.808;2023-09-08T12:33:39;4.75;;;2.38;;
68870;SDS011;55906;52.278;6.808;2023-09-08T12:36:12;4.97;;;2.47;;
68870;SDS011;55906;52.278;6.808;2023-09-08T12:38:46;4.03;;;2.20;;
68870;SDS011;55906;52.278;6.808;2023-09-08T12:41:13;4.87;;;2.27;;
68870;SDS011;55906;52.278;6.808;2023-09-08T12:43:40;6.35;;;2.40;;
68870;SDS011;55906;52.278;6.808;2023-09-08T12:46:06;4.75;;;2.20;;
68870;SDS011;55906;52.278;6.808;2023-09-08T12:48:33;5.28;;;2.40;;
68870;SDS011;55906;52.278;6.808;2023-09-08T12:50:59;5.35;;;2.20;;
68870;SDS011;55906;52.278;6.808;2023-09-08T12:53:28;5.30;;;2.40;;
68870;SDS011;55906;52.278;6.808;2023-09-08T12:55:55;5.50;;;2.50;;
68870;SDS011;55906;52.278;6.808;2023-09-08T12:58:22;4.60;;;2.30;;
68870;SDS011;55906;52.278;6.808;2023-09-08T13:00:49;5.88;;;2.30;;
68870;SDS011;55906;52.278;6.808;2023-09-08T13:03:15;7.03;;;2.45;;
68870;SDS011;55906;52.278;6.808;2023-09-08T13:05:42;7.20;;;2.40;;
68870;SDS011;55906;52.278;6.808;2023-09-08T13:08:08;5.47;;;2.20;;
68870;SDS011;55906;52.278;6.808;2023-09-08T13:10:37;6.38;;;2.65;;
68870;SDS011;55906;52.278;6.808;2023-09-08T13:13:04;5.63;;;2.38;;
68870;SDS011;55906;52.278;6.808;2023-09-08T13:15:31;7.60;;;2.65;;
68870;SDS011;55906;52.278;6.808;2023-09-08T13:17:57;5.27;;;2.40;;
68870;SDS011;55906;52.278;6.808;2023-09-08T13:20:24;5.28;;;2.50;;
68870;SDS011;55906;52.278;6.808;2023-09-08T13:22:50;4.35;;;2.33;;
68870;SDS011;55906;52.278;6.808;2023-09-08T13:25:17;4.22;;;2.42;;
68870;SDS011;55906;52.278;6.808;2023-09-08T13:27:45;5.80;;;2.40;;
68870;SDS011;55906;52.278;6.808;2023-09-08T13:30:13;4.80;;;2.17;;
68870;SDS011;55906;52.278;6.808;2023-09-08T13:32:41;5.22;;;2.50;;
68870;SDS011;55906;52.278;6.808;2023-09-08T13:35:08;6.63;;;2.30;;
68870;SDS011;55906;52.278;6.808;2023-09-08T13:37:35;4.85;;;2.50;;
68870;SDS011;55906;52.278;6.808;2023-09-08T13:40:03;5.55;;;2.50;;
68870;SDS011;55906;52.278;6.808;2023-09-08T13:42:30;5.50;;;2.40;;
68870;SDS011;55906;52.278;6.808;2023-09-08T13:44:58;5.25;;;2.20;;
68870;SDS011;55906;52.278;6.808;2023-09-08T13:47:25;5.18;;;2.50;;
68870;SDS011;55906;52.278;6.808;2023-09-08T13:49:52;4.57;;;2.50;;
68870;SDS011;55906;52.278;6.808;2023-09-08T13:52:19;5.93;;;2.60;;
68870;SDS011;55906;52.278;6.808;2023-09-08T13:54:45;4.23;;;2.30;;
68870;SDS011;55906;52.278;6.808;2023-09-08T13:57:12;5.70;;;2.67;;
68870;SDS011;55906;52.278;6.808;2023-09-08T13:59:38;6.15;;;2.67;;
68870;SDS011;55906;52.278;6.808;2023-09-08T14:02:07;5.25;;;2.65;;
68870;SDS011;55906;52.278;6.808;2023-09-08T14:04:34;6.57;;;2.80;;
68870;SDS011;55906;52.278;6.808;2023-09-08T14:07:00;5.70;;;2.80;;
68870;SDS011;55906;52.278;6.808;2023-09-08T14:09:28;4.80;;;2.80;;
68870;SDS011;55906;52.278;6.808;2023-09-08T14:11:54;6.53;;;3.08;;
68870;SDS011;55906;52.278;6.808;2023-09-08T14:14:21;5.90;;;2.65;;
68870;SDS011;55906;52.278;6.808;2023-09-08T14:16:49;6.60;;;2.92;;
68870;SDS011;55906;52.278;6.808;2023-09-08T14:19:17;7.13;;;3.10;;
68870;SDS011;55906;52.278;6.808;2023-09-08T14:21:44;6.00;;;3.20;;
68870;SDS011;55906;52.278;6.808;2023-09-08T14:24:10;7.65;;;3.38;;
68870;SDS011;55906;52.278;6.808;2023-09-08T14:26:37;6.35;;;3.22;;
68870;SDS011;55906;52.278;6.808;2023-09-08T14:29:03;5.65;;;3.30;;
68870;SDS011;55906;52.278;6.808;2023-09-08T14:31:30;7.00;;;3.90;;
68870;SDS011;55906;52.278;6.808;2023-09-08T14:33:57;6.95;;;3.47;;
68870;SDS011;55906;52.278;6.808;2023-09-08T14:36:25;7.38;;;3.55;;
68870;SDS011;55906;52.278;6.808;2023-09-08T14:38:52;7.38;;;3.63;;
68870;SDS011;55906;52.278;6.808;2023-09-08T14:41:19;6.63;;;3.33;;
68870;SDS011;55906;52.278;6.808;2023-09-08T14:43:46;6.17;;;3.30;;
68870;SDS011;55906;52.278;6.808;2023-09-08T14:46:12;8.57;;;3.65;;
68870;SDS011;55906;52.278;6.808;2023-09-08T14:48:39;6.70;;;3.58;;
68870;SDS011;55906;52.278;6.808;2023-09-08T14:51:06;6.40;;;3.50;;
68870;SDS011;55906;52.278;6.808;2023-09-08T14:53:34;6.28;;;3.10;;
68870;SDS011;55906;52.278;6.808;2023-09-08T14:56:01;7.33;;;3.73;;
68870;SDS011;55906;52.278;6.808;2023-09-08T14:58:29;5.85;;;3.70;;
68870;SDS011;55906;52.278;6.808;2023-09-08T15:00:59;6.13;;;3.70;;
68870;SDS011;55906;52.278;6.808;2023-09-08T15:03:28;6.95;;;3.85;;
68870;SDS011;55906;52.278;6.808;2023-09-08T15:05:56;5.78;;;3.65;;
68870;SDS011;55906;52.278;6.808;2023-09-08T15:08:23;5.47;;;3.60;;
68870;SDS011;55906;52.278;6.808;2023-09-08T15:10:51;9.05;;;4.10;;
68870;SDS011;55906;52.278;6.808;2023-09-08T15:13:17;9.40;;;3.63;;
68870;SDS011;55906;52.278;6.808;2023-09-08T15:15:44;5.57;;;3.72;;
68870;SDS011;55906;52.278;6.808;2023-09-08T15:18:11;7.43;;;3.90;;
68870;SDS011;55906;52.278;6.808;2023-09-08T15:20:38;7.57;;;4.07;;
68870;SDS011;55906;52.278;6.808;2023-09-08T15:23:05;10.75;;;4.38;;
68870;SDS011;55906;52.278;6.808;2023-09-08T15:25:32;7.63;;;4.28;;
68870;SDS011;55906;52.278;6.808;2023-09-08T15:28:00;6.75;;;4.10;;
68870;SDS011;55906;52.278;6.808;2023-09-08T15:30:27;7.80;;;4.45;;
68870;SDS011;55906;52.278;6.808;2023-09-08T15:32:53;7.63;;;3.90;;
68870;SDS011;55906;52.278;6.808;2023-09-08T15:35:21;7.20;;;3.85;;
68870;SDS011;55906;52.278;6.808;2023-09-08T15:37:48;8.18;;;4.43;;
68870;SDS011;55906;52.278;6.808;2023-09-08T15:40:14;6.97;;;4.25;;
68870;SDS011;55906;52.278;6.808;2023-09-08T15:42:41;7.13;;;3.80;;
68870;SDS011;55906;52.278;6.808;2023-09-08T15:45:10;7.70;;;3.90;;
68870;SDS011;55906;52.278;6.808;2023-09-08T15:47:37;6.57;;;3.83;;
68870;SDS011;55906;52.278;6.808;2023-09-08T15:50:04;7.35;;;4.07;;
68870;SDS011;55906;52.278;6.808;2023-09-08T15:52:34;6.15;;;3.60;;